Holbrook, AZ

2:21 PM MST on May 23, 2017 (GMT -0700)
Star Ranch | | Change Station
Active Advisory: Fire Weather Watch

Elev 5659 ft 34.62 °N, 110.00 °W | Updated 9 seconds ago

Clear
Clear
77.2 °F
Feels Like 76 °F
N
19.0
Wind Variable Wind from West
Gusts 22.4 mph

Today
High -- | Low -- °F
--% Chance of Precip.
Yesterday
High -- | Low -- °F
Precip. -- in
Pressure 29.96 in
Visibility 10.0 miles
Clouds Clear
Heat Index 76 °F
Dew Point 23 °F
Humidity 13%
Rainfall 0.00 in
Snow Depth Not available.
5:11 AM 7:23 PM
Waning Crescent, 6% visible
METAR KINW 232056Z AUTO 33010G20KT 10SM CLR 28/M01 A3014 RMK AO2 SLP144 T02831011 58020
Pressure 29.96 in
Visibility 10.0 miles
Clouds Clear
Heat Index 76 °F
Dew Point 23 °F
Humidity 13%
Rainfall 0.00 in
Snow Depth Not available.
5:11 AM 7:23 PM
Waning Crescent, 6% visible
METAR KINW 232056Z AUTO 33010G20KT 10SM CLR 28/M01 A3014 RMK AO2 SLP144 T02831011 58020

Get Your Daily Forecast Email!

Thanks for signing up!

Be on the lookout for a verification email in your inbox.

You'll start receiving severe weather alerts in your inbox..

×

10-Day Weather Forecast

Almanac

Astronomy

May. 23, 2017 Rise Set
Actual Time
Civil Twilight
Nautical Twilight
Astronomical Twilight
Moon
Length of Visible Light
Length of Day
Tomorrow will be .
, % of the Moon is Illuminated

Today's Extremes

State Highs State Lows

Community

WunderPhotos

Category 6

Welcome to Category 6. This is the collective home for Weather Underground's featured writeups by Dr. Jeff Masters (right), Bob Henson (left), Chris Burt, and other regular contributors.

Nearby

Air Quality

  Air Quality AQ Index Pollutant
Not available.

Snow Depth

Station Depth Elevation

Earthquake Activity

City Distance Mag. Time & Date
Minimum magnitude displayed is 2.5.

Coastal Water Temperatures

Place Temperature

Stations

Nearby Weather Stations

Station Location Temp. Windchill Dew Point Humidity Wind Precip. Elev Updated Type
                   

Watches & Warnings

Fire Weather Watch
Issued: 12:58 PM MDT May. 23, 2017 – National Weather Service

... Fire Weather Watch remains in effect from Thursday morning
through Thursday evening for strong winds and low relative
humidities for portions of north central and eastern Arizona...

* affected area... portions of north central and eastern Arizona.

* 20 foot wind... west-southwest 20 to 25 mph gusting to 40 mph.

* Relative humidity... 8 to 14 percent.

* Impacts... any fires that develop will likely spread rapidly.
Outdoor burning is not recommended.

Precautionary/preparedness actions...

A Fire Weather Watch means that critical fire weather conditions
are possible. Listen for later forecasts and possible red flag
warnings.

Please notify field crews of this Fire Weather Watch.